sensor_id;sensor_type;location;lat;lon;timestamp;P1;durP1;ratioP1;P2;durP2;ratioP2
34030;SDS011;20319;28.466;-16.274;2023-08-21T00:01:45;6.35;;;2.38;;
34030;SDS011;20319;28.466;-16.274;2023-08-21T00:04:11;8.57;;;2.40;;
34030;SDS011;20319;28.466;-16.274;2023-08-21T00:06:37;6.40;;;2.28;;
34030;SDS011;20319;28.466;-16.274;2023-08-21T00:09:02;4.70;;;1.90;;
34030;SDS011;20319;28.466;-16.274;2023-08-21T00:11:28;3.03;;;1.85;;
34030;SDS011;20319;28.466;-16.274;2023-08-21T00:13:54;5.28;;;1.77;;
34030;SDS011;20319;28.466;-16.274;2023-08-21T00:16:19;5.35;;;1.95;;
34030;SDS011;20319;28.466;-16.274;2023-08-21T00:18:45;7.22;;;1.83;;
34030;SDS011;20319;28.466;-16.274;2023-08-21T00:21:11;10.68;;;1.90;;
34030;SDS011;20319;28.466;-16.274;2023-08-21T00:23:36;6.20;;;1.85;;
34030;SDS011;20319;28.466;-16.274;2023-08-21T00:26:02;5.45;;;1.80;;
34030;SDS011;20319;28.466;-16.274;2023-08-21T00:28:28;6.63;;;1.70;;
34030;SDS011;20319;28.466;-16.274;2023-08-21T00:31:07;2.90;;;1.75;;
34030;SDS011;20319;28.466;-16.274;2023-08-21T00:33:32;3.83;;;1.77;;
34030;SDS011;20319;28.466;-16.274;2023-08-21T00:35:59;3.15;;;1.52;;
34030;SDS011;20319;28.466;-16.274;2023-08-21T00:38:25;2.75;;;1.40;;
34030;SDS011;20319;28.466;-16.274;2023-08-21T00:40:51;3.22;;;1.60;;
34030;SDS011;20319;28.466;-16.274;2023-08-21T00:43:17;3.42;;;1.30;;
34030;SDS011;20319;28.466;-16.274;2023-08-21T00:45:44;3.40;;;1.30;;
34030;SDS011;20319;28.466;-16.274;2023-08-21T00:48:11;1.85;;;1.20;;
34030;SDS011;20319;28.466;-16.274;2023-08-21T00:50:38;2.97;;;1.77;;
34030;SDS011;20319;28.466;-16.274;2023-08-21T00:53:04;2.17;;;1.25;;
34030;SDS011;20319;28.466;-16.274;2023-08-21T00:55:31;3.85;;;1.55;;
34030;SDS011;20319;28.466;-16.274;2023-08-21T00:57:57;2.33;;;1.40;;
34030;SDS011;20319;28.466;-16.274;2023-08-21T01:00:24;5.38;;;1.58;;
34030;SDS011;20319;28.466;-16.274;2023-08-21T01:02:50;4.07;;;1.50;;
34030;SDS011;20319;28.466;-16.274;2023-08-21T01:05:17;4.03;;;1.55;;
34030;SDS011;20319;28.466;-16.274;2023-08-21T01:07:49;3.50;;;1.50;;
34030;SDS011;20319;28.466;-16.274;2023-08-21T01:10:41;3.58;;;1.60;;
34030;SDS011;20319;28.466;-16.274;2023-08-21T01:13:27;4.60;;;1.70;;
34030;SDS011;20319;28.466;-16.274;2023-08-21T01:16:17;1.90;;;1.38;;
34030;SDS011;20319;28.466;-16.274;2023-08-21T01:18:44;3.58;;;1.63;;
34030;SDS011;20319;28.466;-16.274;2023-08-21T01:21:12;6.53;;;1.63;;
34030;SDS011;20319;28.466;-16.274;2023-08-21T01:23:38;4.82;;;2.17;;
34030;SDS011;20319;28.466;-16.274;2023-08-21T01:26:04;5.35;;;1.80;;
34030;SDS011;20319;28.466;-16.274;2023-08-21T01:28:30;5.70;;;1.65;;
34030;SDS011;20319;28.466;-16.274;2023-08-21T01:31:19;7.88;;;1.67;;
34030;SDS011;20319;28.466;-16.274;2023-08-21T01:33:53;3.85;;;1.50;;
34030;SDS011;20319;28.466;-16.274;2023-08-21T01:36:22;3.92;;;1.67;;
34030;SDS011;20319;28.466;-16.274;2023-08-21T01:38:48;5.15;;;1.83;;
34030;SDS011;20319;28.466;-16.274;2023-08-21T01:41:14;3.47;;;1.48;;
34030;SDS011;20319;28.466;-16.274;2023-08-21T01:43:39;4.88;;;1.30;;
34030;SDS011;20319;28.466;-16.274;2023-08-21T01:46:05;4.80;;;1.30;;
34030;SDS011;20319;28.466;-16.274;2023-08-21T01:48:31;5.25;;;1.40;;
34030;SDS011;20319;28.466;-16.274;2023-08-21T01:50:57;2.08;;;1.00;;
34030;SDS011;20319;28.466;-16.274;2023-08-21T01:53:22;2.17;;;1.10;;
34030;SDS011;20319;28.466;-16.274;2023-08-21T01:55:48;2.33;;;1.00;;
34030;SDS011;20319;28.466;-16.274;2023-08-21T01:58:14;2.75;;;1.45;;
34030;SDS011;20319;28.466;-16.274;2023-08-21T02:00:39;1.67;;;1.00;;
34030;SDS011;20319;28.466;-16.274;2023-08-21T02:03:05;1.90;;;0.90;;
34030;SDS011;20319;28.466;-16.274;2023-08-21T02:05:36;2.08;;;0.90;;
34030;SDS011;20319;28.466;-16.274;2023-08-21T02:08:02;1.80;;;1.00;;
34030;SDS011;20319;28.466;-16.274;2023-08-21T02:10:28;1.52;;;0.70;;
34030;SDS011;20319;28.466;-16.274;2023-08-21T02:12:54;1.27;;;0.90;;
34030;SDS011;20319;28.466;-16.274;2023-08-21T02:15:19;1.40;;;1.10;;
34030;SDS011;20319;28.466;-16.274;2023-08-21T02:17:47;1.25;;;0.88;;
34030;SDS011;20319;28.466;-16.274;2023-08-21T02:20:12;2.17;;;1.10;;
34030;SDS011;20319;28.466;-16.274;2023-08-21T02:22:38;5.10;;;1.05;;
34030;SDS011;20319;28.466;-16.274;2023-08-21T02:25:04;4.63;;;1.23;;
34030;SDS011;20319;28.466;-16.274;2023-08-21T02:27:30;4.45;;;1.60;;
34030;SDS011;20319;28.466;-16.274;2023-08-21T02:29:55;5.30;;;1.50;;
34030;SDS011;20319;28.466;-16.274;2023-08-21T02:32:21;5.38;;;1.45;;
34030;SDS011;20319;28.466;-16.274;2023-08-21T02:34:47;7.22;;;1.50;;
34030;SDS011;20319;28.466;-16.274;2023-08-21T02:37:12;5.20;;;1.98;;
34030;SDS011;20319;28.466;-16.274;2023-08-21T02:39:38;7.15;;;1.85;;
34030;SDS011;20319;28.466;-16.274;2023-08-21T02:42:03;4.85;;;1.77;;
34030;SDS011;20319;28.466;-16.274;2023-08-21T02:44:29;9.95;;;2.20;;
34030;SDS011;20319;28.466;-16.274;2023-08-21T02:46:55;4.35;;;1.80;;
34030;SDS011;20319;28.466;-16.274;2023-08-21T02:49:20;6.47;;;1.80;;
34030;SDS011;20319;28.466;-16.274;2023-08-21T02:51:46;6.28;;;1.70;;
34030;SDS011;20319;28.466;-16.274;2023-08-21T02:54:12;6.70;;;1.70;;
34030;SDS011;20319;28.466;-16.274;2023-08-21T02:56:38;7.53;;;2.00;;
34030;SDS011;20319;28.466;-16.274;2023-08-21T02:59:03;5.63;;;1.90;;
34030;SDS011;20319;28.466;-16.274;2023-08-21T03:01:29;9.90;;;2.00;;
34030;SDS011;20319;28.466;-16.274;2023-08-21T03:03:54;7.63;;;2.40;;
34030;SDS011;20319;28.466;-16.274;2023-08-21T03:06:20;9.52;;;2.03;;
34030;SDS011;20319;28.466;-16.274;2023-08-21T03:08:46;4.97;;;1.88;;
34030;SDS011;20319;28.466;-16.274;2023-08-21T03:11:11;11.63;;;2.10;;
34030;SDS011;20319;28.466;-16.274;2023-08-21T03:13:38;7.15;;;2.40;;
34030;SDS011;20319;28.466;-16.274;2023-08-21T03:16:03;7.03;;;2.28;;
34030;SDS011;20319;28.466;-16.274;2023-08-21T03:18:30;7.43;;;2.53;;
34030;SDS011;20319;28.466;-16.274;2023-08-21T03:20:57;8.80;;;2.55;;
34030;SDS011;20319;28.466;-16.274;2023-08-21T03:23:23;11.52;;;2.65;;
34030;SDS011;20319;28.466;-16.274;2023-08-21T03:25:51;10.55;;;2.35;;
34030;SDS011;20319;28.466;-16.274;2023-08-21T03:28:17;10.10;;;2.78;;
34030;SDS011;20319;28.466;-16.274;2023-08-21T03:30:43;12.68;;;2.95;;
34030;SDS011;20319;28.466;-16.274;2023-08-21T03:33:09;12.65;;;3.05;;
34030;SDS011;20319;28.466;-16.274;2023-08-21T03:35:34;10.27;;;3.05;;
34030;SDS011;20319;28.466;-16.274;2023-08-21T03:38:00;9.60;;;2.55;;
34030;SDS011;20319;28.466;-16.274;2023-08-21T03:40:25;11.70;;;3.13;;
34030;SDS011;20319;28.466;-16.274;2023-08-21T03:42:51;12.63;;;3.35;;
34030;SDS011;20319;28.466;-16.274;2023-08-21T03:45:17;14.77;;;3.25;;
34030;SDS011;20319;28.466;-16.274;2023-08-21T03:47:42;12.85;;;3.10;;
34030;SDS011;20319;28.466;-16.274;2023-08-21T03:50:08;9.00;;;2.88;;
34030;SDS011;20319;28.466;-16.274;2023-08-21T03:52:34;11.13;;;2.88;;
34030;SDS011;20319;28.466;-16.274;2023-08-21T03:54:59;12.27;;;2.83;;
34030;SDS011;20319;28.466;-16.274;2023-08-21T03:57:25;13.55;;;2.92;;
34030;SDS011;20319;28.466;-16.274;2023-08-21T03:59:51;7.93;;;2.17;;
34030;SDS011;20319;28.466;-16.274;2023-08-21T04:02:16;12.85;;;3.70;;
34030;SDS011;20319;28.466;-16.274;2023-08-21T04:04:42;12.52;;;3.08;;
34030;SDS011;20319;28.466;-16.274;2023-08-21T04:07:07;12.30;;;3.08;;
34030;SDS011;20319;28.466;-16.274;2023-08-21T04:09:33;11.43;;;3.20;;
34030;SDS011;20319;28.466;-16.274;2023-08-21T04:11:58;11.20;;;2.75;;
34030;SDS011;20319;28.466;-16.274;2023-08-21T04:14:24;10.48;;;3.10;;
34030;SDS011;20319;28.466;-16.274;2023-08-21T04:16:50;11.77;;;3.00;;
34030;SDS011;20319;28.466;-16.274;2023-08-21T04:19:15;13.15;;;2.90;;
34030;SDS011;20319;28.466;-16.274;2023-08-21T04:21:41;11.75;;;2.50;;
34030;SDS011;20319;28.466;-16.274;2023-08-21T04:24:06;10.95;;;3.22;;
34030;SDS011;20319;28.466;-16.274;2023-08-21T04:26:32;13.20;;;3.10;;
34030;SDS011;20319;28.466;-16.274;2023-08-21T04:28:58;10.70;;;3.05;;
34030;SDS011;20319;28.466;-16.274;2023-08-21T04:31:23;11.90;;;2.80;;
34030;SDS011;20319;28.466;-16.274;2023-08-21T04:33:49;9.85;;;2.67;;
34030;SDS011;20319;28.466;-16.274;2023-08-21T04:36:15;9.82;;;2.72;;
34030;SDS011;20319;28.466;-16.274;2023-08-21T04:38:41;12.27;;;2.50;;
34030;SDS011;20319;28.466;-16.274;2023-08-21T04:41:07;13.32;;;3.20;;
34030;SDS011;20319;28.466;-16.274;2023-08-21T04:43:34;10.13;;;2.30;;
34030;SDS011;20319;28.466;-16.274;2023-08-21T04:45:59;10.88;;;2.70;;
34030;SDS011;20319;28.466;-16.274;2023-08-21T04:48:25;8.60;;;2.92;;
34030;SDS011;20319;28.466;-16.274;2023-08-21T04:50:51;9.65;;;2.58;;
34030;SDS011;20319;28.466;-16.274;2023-08-21T04:53:16;11.48;;;2.90;;
34030;SDS011;20319;28.466;-16.274;2023-08-21T04:55:42;11.43;;;2.83;;
34030;SDS011;20319;28.466;-16.274;2023-08-21T04:58:08;11.63;;;3.00;;
34030;SDS011;20319;28.466;-16.274;2023-08-21T05:00:35;11.57;;;3.00;;
34030;SDS011;20319;28.466;-16.274;2023-08-21T05:03:00;10.70;;;2.97;;
34030;SDS011;20319;28.466;-16.274;2023-08-21T05:05:26;15.10;;;3.28;;
34030;SDS011;20319;28.466;-16.274;2023-08-21T05:07:52;10.77;;;3.10;;
34030;SDS011;20319;28.466;-16.274;2023-08-21T05:10:18;13.75;;;3.08;;
34030;SDS011;20319;28.466;-16.274;2023-08-21T05:12:44;10.13;;;3.25;;
34030;SDS011;20319;28.466;-16.274;2023-08-21T05:15:10;15.35;;;3.92;;
34030;SDS011;20319;28.466;-16.274;2023-08-21T05:17:36;12.63;;;3.53;;
34030;SDS011;20319;28.466;-16.274;2023-08-21T05:20:02;9.55;;;2.70;;
34030;SDS011;20319;28.466;-16.274;2023-08-21T05:22:28;11.02;;;3.08;;
34030;SDS011;20319;28.466;-16.274;2023-08-21T05:24:54;14.88;;;3.47;;
34030;SDS011;20319;28.466;-16.274;2023-08-21T05:27:20;10.77;;;3.22;;
34030;SDS011;20319;28.466;-16.274;2023-08-21T05:29:46;14.10;;;3.25;;
34030;SDS011;20319;28.466;-16.274;2023-08-21T05:32:12;17.17;;;3.75;;
34030;SDS011;20319;28.466;-16.274;2023-08-21T05:34:37;16.63;;;3.17;;
34030;SDS011;20319;28.466;-16.274;2023-08-21T05:37:03;14.40;;;3.47;;
34030;SDS011;20319;28.466;-16.274;2023-08-21T05:39:29;11.80;;;3.50;;
34030;SDS011;20319;28.466;-16.274;2023-08-21T05:41:54;18.40;;;3.78;;
34030;SDS011;20319;28.466;-16.274;2023-08-21T05:44:20;13.05;;;3.30;;
34030;SDS011;20319;28.466;-16.274;2023-08-21T05:46:46;13.82;;;3.90;;
34030;SDS011;20319;28.466;-16.274;2023-08-21T05:49:12;16.55;;;3.38;;
34030;SDS011;20319;28.466;-16.274;2023-08-21T05:51:37;13.45;;;3.83;;
34030;SDS011;20319;28.466;-16.274;2023-08-21T05:54:03;19.90;;;4.30;;
34030;SDS011;20319;28.466;-16.274;2023-08-21T05:56:29;12.65;;;3.60;;
34030;SDS011;20319;28.466;-16.274;2023-08-21T05:58:54;15.10;;;3.92;;
34030;SDS011;20319;28.466;-16.274;2023-08-21T06:01:20;13.90;;;3.80;;
34030;SDS011;20319;28.466;-16.274;2023-08-21T06:03:45;21.05;;;3.80;;
34030;SDS011;20319;28.466;-16.274;2023-08-21T06:06:11;14.88;;;3.42;;
34030;SDS011;20319;28.466;-16.274;2023-08-21T06:08:37;13.48;;;4.90;;
34030;SDS011;20319;28.466;-16.274;2023-08-21T06:11:02;15.65;;;4.10;;
34030;SDS011;20319;28.466;-16.274;2023-08-21T06:13:28;16.25;;;4.38;;
34030;SDS011;20319;28.466;-16.274;2023-08-21T06:15:54;16.95;;;3.90;;
34030;SDS011;20319;28.466;-16.274;2023-08-21T06:18:19;14.13;;;3.67;;
34030;SDS011;20319;28.466;-16.274;2023-08-21T06:20:45;19.40;;;4.63;;
34030;SDS011;20319;28.466;-16.274;2023-08-21T06:23:11;17.30;;;9.38;;
34030;SDS011;20319;28.466;-16.274;2023-08-21T06:25:37;44.00;;;32.90;;
34030;SDS011;20319;28.466;-16.274;2023-08-21T06:28:03;35.63;;;23.05;;
34030;SDS011;20319;28.466;-16.274;2023-08-21T06:30:29;30.55;;;17.05;;
34030;SDS011;20319;28.466;-16.274;2023-08-21T06:32:55;21.40;;;11.93;;
34030;SDS011;20319;28.466;-16.274;2023-08-21T06:35:21;33.17;;;17.27;;
34030;SDS011;20319;28.466;-16.274;2023-08-21T06:37:47;31.38;;;18.00;;
34030;SDS011;20319;28.466;-16.274;2023-08-21T06:40:13;30.38;;;15.80;;
34030;SDS011;20319;28.466;-16.274;2023-08-21T06:42:39;28.88;;;12.40;;
34030;SDS011;20319;28.466;-16.274;2023-08-21T06:45:04;33.22;;;13.57;;
34030;SDS011;20319;28.466;-16.274;2023-08-21T06:47:30;33.70;;;15.90;;
34030;SDS011;20319;28.466;-16.274;2023-08-21T06:49:57;109.05;;;23.77;;
34030;SDS011;20319;28.466;-16.274;2023-08-21T06:52:23;30.77;;;10.13;;
34030;SDS011;20319;28.466;-16.274;2023-08-21T06:54:48;18.83;;;6.60;;
34030;SDS011;20319;28.466;-16.274;2023-08-21T06:57:14;17.98;;;4.93;;
34030;SDS011;20319;28.466;-16.274;2023-08-21T06:59:40;14.60;;;3.60;;
34030;SDS011;20319;28.466;-16.274;2023-08-21T07:02:05;15.32;;;3.70;;
34030;SDS011;20319;28.466;-16.274;2023-08-21T07:04:31;25.98;;;14.45;;
34030;SDS011;20319;28.466;-16.274;2023-08-21T07:06:58;21.73;;;11.52;;
34030;SDS011;20319;28.466;-16.274;2023-08-21T07:09:24;18.38;;;8.18;;
34030;SDS011;20319;28.466;-16.274;2023-08-21T07:11:50;14.63;;;6.40;;
34030;SDS011;20319;28.466;-16.274;2023-08-21T07:14:15;15.73;;;5.43;;
34030;SDS011;20319;28.466;-16.274;2023-08-21T07:16:42;18.08;;;4.82;;
34030;SDS011;20319;28.466;-16.274;2023-08-21T07:19:08;18.83;;;4.78;;
34030;SDS011;20319;28.466;-16.274;2023-08-21T07:21:34;16.70;;;4.25;;
34030;SDS011;20319;28.466;-16.274;2023-08-21T07:24:04;19.15;;;5.35;;
34030;SDS011;20319;28.466;-16.274;2023-08-21T07:26:30;18.13;;;4.55;;
34030;SDS011;20319;28.466;-16.274;2023-08-21T07:28:56;16.80;;;4.53;;
34030;SDS011;20319;28.466;-16.274;2023-08-21T07:31:22;25.60;;;9.30;;
34030;SDS011;20319;28.466;-16.274;2023-08-21T07:33:48;19.73;;;5.75;;
34030;SDS011;20319;28.466;-16.274;2023-08-21T07:36:14;20.80;;;5.90;;
34030;SDS011;20319;28.466;-16.274;2023-08-21T07:38:42;21.70;;;6.30;;
34030;SDS011;20319;28.466;-16.274;2023-08-21T07:41:09;22.83;;;5.85;;
34030;SDS011;20319;28.466;-16.274;2023-08-21T07:43:36;18.20;;;5.47;;
34030;SDS011;20319;28.466;-16.274;2023-08-21T07:46:06;23.67;;;6.35;;
34030;SDS011;20319;28.466;-16.274;2023-08-21T07:48:34;27.90;;;6.80;;
34030;SDS011;20319;28.466;-16.274;2023-08-21T07:51:00;25.25;;;6.22;;
34030;SDS011;20319;28.466;-16.274;2023-08-21T07:53:27;24.63;;;5.90;;
34030;SDS011;20319;28.466;-16.274;2023-08-21T07:55:52;29.75;;;11.00;;
34030;SDS011;20319;28.466;-16.274;2023-08-21T07:58:18;22.85;;;5.93;;
34030;SDS011;20319;28.466;-16.274;2023-08-21T08:00:44;26.15;;;9.52;;
34030;SDS011;20319;28.466;-16.274;2023-08-21T08:03:11;30.50;;;13.85;;
34030;SDS011;20319;28.466;-16.274;2023-08-21T08:05:39;66.57;;;43.47;;
34030;SDS011;20319;28.466;-16.274;2023-08-21T08:08:05;121.75;;;51.67;;
34030;SDS011;20319;28.466;-16.274;2023-08-21T08:10:31;105.32;;;39.97;;
34030;SDS011;20319;28.466;-16.274;2023-08-21T08:12:56;99.82;;;33.03;;
34030;SDS011;20319;28.466;-16.274;2023-08-21T08:15:22;60.58;;;22.42;;
34030;SDS011;20319;28.466;-16.274;2023-08-21T08:17:48;38.40;;;14.10;;
34030;SDS011;20319;28.466;-16.274;2023-08-21T08:20:18;35.25;;;12.18;;
34030;SDS011;20319;28.466;-16.274;2023-08-21T08:22:44;32.00;;;17.17;;
34030;SDS011;20319;28.466;-16.274;2023-08-21T08:25:10;35.17;;;18.85;;
34030;SDS011;20319;28.466;-16.274;2023-08-21T08:27:36;37.00;;;18.95;;
34030;SDS011;20319;28.466;-16.274;2023-08-21T08:30:02;31.38;;;16.52;;
34030;SDS011;20319;28.466;-16.274;2023-08-21T08:32:29;34.65;;;14.57;;
34030;SDS011;20319;28.466;-16.274;2023-08-21T08:34:55;33.03;;;15.10;;
34030;SDS011;20319;28.466;-16.274;2023-08-21T08:37:21;33.72;;;17.30;;
34030;SDS011;20319;28.466;-16.274;2023-08-21T08:39:46;42.40;;;23.98;;
34030;SDS011;20319;28.466;-16.274;2023-08-21T08:42:12;53.25;;;32.53;;
34030;SDS011;20319;28.466;-16.274;2023-08-21T08:44:39;37.22;;;22.17;;
34030;SDS011;20319;28.466;-16.274;2023-08-21T08:47:06;38.22;;;20.23;;
34030;SDS011;20319;28.466;-16.274;2023-08-21T08:49:33;35.42;;;19.83;;
34030;SDS011;20319;28.466;-16.274;2023-08-21T08:52:02;32.67;;;17.48;;
34030;SDS011;20319;28.466;-16.274;2023-08-21T08:54:28;34.60;;;16.60;;
34030;SDS011;20319;28.466;-16.274;2023-08-21T08:56:55;36.58;;;21.73;;
34030;SDS011;20319;28.466;-16.274;2023-08-21T08:59:21;32.42;;;17.73;;
34030;SDS011;20319;28.466;-16.274;2023-08-21T09:01:46;33.42;;;15.48;;
34030;SDS011;20319;28.466;-16.274;2023-08-21T09:04:12;37.55;;;16.63;;
34030;SDS011;20319;28.466;-16.274;2023-08-21T09:06:38;36.33;;;18.48;;
34030;SDS011;20319;28.466;-16.274;2023-08-21T09:09:04;45.10;;;18.73;;
34030;SDS011;20319;28.466;-16.274;2023-08-21T09:11:30;40.83;;;18.75;;
34030;SDS011;20319;28.466;-16.274;2023-08-21T09:13:58;39.63;;;17.08;;
34030;SDS011;20319;28.466;-16.274;2023-08-21T09:16:24;34.25;;;15.52;;
34030;SDS011;20319;28.466;-16.274;2023-08-21T09:18:57;41.55;;;18.63;;
34030;SDS011;20319;28.466;-16.274;2023-08-21T09:21:23;35.75;;;18.02;;
34030;SDS011;20319;28.466;-16.274;2023-08-21T09:23:51;38.08;;;17.65;;
34030;SDS011;20319;28.466;-16.274;2023-08-21T09:26:23;35.90;;;18.02;;
34030;SDS011;20319;28.466;-16.274;2023-08-21T09:28:49;38.47;;;17.58;;
34030;SDS011;20319;28.466;-16.274;2023-08-21T09:31:50;36.85;;;16.85;;
34030;SDS011;20319;28.466;-16.274;2023-08-21T09:34:11;38.83;;;17.93;;
34030;SDS011;20319;28.466;-16.274;2023-08-21T09:36:37;39.35;;;16.30;;
34030;SDS011;20319;28.466;-16.274;2023-08-21T09:39:04;35.85;;;15.70;;
34030;SDS011;20319;28.466;-16.274;2023-08-21T09:41:31;38.83;;;15.00;;
34030;SDS011;20319;28.466;-16.274;2023-08-21T09:44:00;30.38;;;13.30;;
34030;SDS011;20319;28.466;-16.274;2023-08-21T09:46:27;28.23;;;12.77;;
34030;SDS011;20319;28.466;-16.274;2023-08-21T09:48:53;39.22;;;17.55;;
34030;SDS011;20319;28.466;-16.274;2023-08-21T09:51:19;32.78;;;14.85;;
34030;SDS011;20319;28.466;-16.274;2023-08-21T09:53:47;33.13;;;17.83;;
34030;SDS011;20319;28.466;-16.274;2023-08-21T09:56:14;32.20;;;17.08;;
34030;SDS011;20319;28.466;-16.274;2023-08-21T09:58:39;38.30;;;16.38;;
34030;SDS011;20319;28.466;-16.274;2023-08-21T10:01:06;32.40;;;15.90;;
34030;SDS011;20319;28.466;-16.274;2023-08-21T10:03:40;38.35;;;18.77;;
34030;SDS011;20319;28.466;-16.274;2023-08-21T10:06:10;35.28;;;13.98;;
34030;SDS011;20319;28.466;-16.274;2023-08-21T10:08:37;33.75;;;13.93;;
34030;SDS011;20319;28.466;-16.274;2023-08-21T10:11:06;32.75;;;13.35;;
34030;SDS011;20319;28.466;-16.274;2023-08-21T10:13:34;35.78;;;14.85;;
34030;SDS011;20319;28.466;-16.274;2023-08-21T10:16:01;35.97;;;14.48;;
34030;SDS011;20319;28.466;-16.274;2023-08-21T10:18:31;39.13;;;13.88;;
34030;SDS011;20319;28.466;-16.274;2023-08-21T10:21:17;30.85;;;10.80;;
34030;SDS011;20319;28.466;-16.274;2023-08-21T10:23:53;32.65;;;9.05;;
34030;SDS011;20319;28.466;-16.274;2023-08-21T10:26:21;26.92;;;8.65;;
34030;SDS011;20319;28.466;-16.274;2023-08-21T10:28:54;26.08;;;8.85;;
34030;SDS011;20319;28.466;-16.274;2023-08-21T10:34:01;28.27;;;9.32;;
34030;SDS011;20319;28.466;-16.274;2023-08-21T10:37:02;29.08;;;9.00;;
34030;SDS011;20319;28.466;-16.274;2023-08-21T10:39:28;26.40;;;9.05;;
34030;SDS011;20319;28.466;-16.274;2023-08-21T10:42:09;21.63;;;8.88;;
34030;SDS011;20319;28.466;-16.274;2023-08-21T10:49:47;24.35;;;8.20;;
34030;SDS011;20319;28.466;-16.274;2023-08-21T10:52:14;27.23;;;8.65;;
34030;SDS011;20319;28.466;-16.274;2023-08-21T10:54:49;22.00;;;8.48;;
34030;SDS011;20319;28.466;-16.274;2023-08-21T10:57:19;26.88;;;10.40;;
34030;SDS011;20319;28.466;-16.274;2023-08-21T10:59:51;27.70;;;12.35;;
34030;SDS011;20319;28.466;-16.274;2023-08-21T11:02:20;30.23;;;13.70;;
34030;SDS011;20319;28.466;-16.274;2023-08-21T11:04:47;31.42;;;16.52;;
34030;SDS011;20319;28.466;-16.274;2023-08-21T11:07:14;29.88;;;12.93;;
34030;SDS011;20319;28.466;-16.274;2023-08-21T11:09:39;25.48;;;9.25;;
34030;SDS011;20319;28.466;-16.274;2023-08-21T11:12:15;24.67;;;8.63;;
34030;SDS011;20319;28.466;-16.274;2023-08-21T11:14:43;27.38;;;9.52;;
34030;SDS011;20319;28.466;-16.274;2023-08-21T11:17:09;26.13;;;9.82;;
34030;SDS011;20319;28.466;-16.274;2023-08-21T11:19:35;26.75;;;9.10;;
34030;SDS011;20319;28.466;-16.274;2023-08-21T11:22:02;25.52;;;11.50;;
34030;SDS011;20319;28.466;-16.274;2023-08-21T11:27:11;26.35;;;9.48;;
34030;SDS011;20319;28.466;-16.274;2023-08-21T11:29:39;27.98;;;10.07;;
34030;SDS011;20319;28.466;-16.274;2023-08-21T11:32:10;25.67;;;9.43;;
34030;SDS011;20319;28.466;-16.274;2023-08-21T11:34:36;25.70;;;9.60;;
34030;SDS011;20319;28.466;-16.274;2023-08-21T11:37:03;21.67;;;8.68;;
34030;SDS011;20319;28.466;-16.274;2023-08-21T11:39:42;28.35;;;10.60;;
34030;SDS011;20319;28.466;-16.274;2023-08-21T11:42:13;26.13;;;9.40;;
34030;SDS011;20319;28.466;-16.274;2023-08-21T11:44:40;30.80;;;10.00;;
34030;SDS011;20319;28.466;-16.274;2023-08-21T11:47:16;21.70;;;8.05;;
34030;SDS011;20319;28.466;-16.274;2023-08-21T11:49:44;27.15;;;8.52;;
34030;SDS011;20319;28.466;-16.274;2023-08-21T11:52:12;20.42;;;7.25;;
34030;SDS011;20319;28.466;-16.274;2023-08-21T11:54:39;25.75;;;7.97;;
34030;SDS011;20319;28.466;-16.274;2023-08-21T11:57:06;24.63;;;7.53;;
34030;SDS011;20319;28.466;-16.274;2023-08-21T11:59:33;23.15;;;6.85;;
34030;SDS011;20319;28.466;-16.274;2023-08-21T12:01:59;17.92;;;6.28;;
34030;SDS011;20319;28.466;-16.274;2023-08-21T12:04:25;21.67;;;6.72;;
34030;SDS011;20319;28.466;-16.274;2023-08-21T12:06:50;22.90;;;7.20;;
34030;SDS011;20319;28.466;-16.274;2023-08-21T12:09:17;19.17;;;6.53;;
34030;SDS011;20319;28.466;-16.274;2023-08-21T12:11:44;21.65;;;6.78;;
34030;SDS011;20319;28.466;-16.274;2023-08-21T12:14:10;16.48;;;6.40;;
34030;SDS011;20319;28.466;-16.274;2023-08-21T12:16:36;21.60;;;6.88;;
34030;SDS011;20319;28.466;-16.274;2023-08-21T12:19:02;19.38;;;6.63;;
34030;SDS011;20319;28.466;-16.274;2023-08-21T12:21:28;20.73;;;6.38;;
34030;SDS011;20319;28.466;-16.274;2023-08-21T12:23:54;17.80;;;5.90;;
34030;SDS011;20319;28.466;-16.274;2023-08-21T12:26:19;18.73;;;6.10;;
34030;SDS011;20319;28.466;-16.274;2023-08-21T12:28:48;19.88;;;5.15;;
34030;SDS011;20319;28.466;-16.274;2023-08-21T12:31:15;20.25;;;5.55;;
34030;SDS011;20319;28.466;-16.274;2023-08-21T12:33:41;25.02;;;6.25;;
34030;SDS011;20319;28.466;-16.274;2023-08-21T12:36:07;21.10;;;6.45;;
34030;SDS011;20319;28.466;-16.274;2023-08-21T12:38:35;21.13;;;5.20;;
34030;SDS011;20319;28.466;-16.274;2023-08-21T12:41:01;25.80;;;6.45;;
34030;SDS011;20319;28.466;-16.274;2023-08-21T12:43:28;16.48;;;4.95;;
34030;SDS011;20319;28.466;-16.274;2023-08-21T12:45:53;23.70;;;6.18;;
34030;SDS011;20319;28.466;-16.274;2023-08-21T12:48:20;22.33;;;5.85;;
34030;SDS011;20319;28.466;-16.274;2023-08-21T12:50:46;17.60;;;5.40;;
34030;SDS011;20319;28.466;-16.274;2023-08-21T12:53:11;18.58;;;5.22;;
34030;SDS011;20319;28.466;-16.274;2023-08-21T12:55:37;18.77;;;5.72;;
34030;SDS011;20319;28.466;-16.274;2023-08-21T12:58:03;18.45;;;5.25;;
34030;SDS011;20319;28.466;-16.274;2023-08-21T13:00:29;15.82;;;4.80;;
34030;SDS011;20319;28.466;-16.274;2023-08-21T13:02:54;17.48;;;5.38;;
34030;SDS011;20319;28.466;-16.274;2023-08-21T13:05:20;19.85;;;5.15;;
34030;SDS011;20319;28.466;-16.274;2023-08-21T13:07:46;15.23;;;5.25;;
34030;SDS011;20319;28.466;-16.274;2023-08-21T13:10:12;18.23;;;5.53;;
34030;SDS011;20319;28.466;-16.274;2023-08-21T13:12:38;15.55;;;4.72;;
34030;SDS011;20319;28.466;-16.274;2023-08-21T13:15:04;19.73;;;5.43;;
34030;SDS011;20319;28.466;-16.274;2023-08-21T13:17:32;21.20;;;5.30;;
34030;SDS011;20319;28.466;-16.274;2023-08-21T13:19:58;16.35;;;4.45;;
34030;SDS011;20319;28.466;-16.274;2023-08-21T13:22:24;18.67;;;4.95;;
34030;SDS011;20319;28.466;-16.274;2023-08-21T13:24:49;12.85;;;4.43;;
34030;SDS011;20319;28.466;-16.274;2023-08-21T13:27:15;19.45;;;5.00;;
34030;SDS011;20319;28.466;-16.274;2023-08-21T13:29:41;19.05;;;4.97;;
34030;SDS011;20319;28.466;-16.274;2023-08-21T13:32:06;16.23;;;4.97;;
34030;SDS011;20319;28.466;-16.274;2023-08-21T13:34:32;24.10;;;5.82;;
34030;SDS011;20319;28.466;-16.274;2023-08-21T13:36:58;16.80;;;4.90;;
34030;SDS011;20319;28.466;-16.274;2023-08-21T13:39:23;19.20;;;4.90;;
34030;SDS011;20319;28.466;-16.274;2023-08-21T13:41:51;22.25;;;4.93;;
34030;SDS011;20319;28.466;-16.274;2023-08-21T13:44:17;17.50;;;4.82;;
34030;SDS011;20319;28.466;-16.274;2023-08-21T13:46:42;20.25;;;5.22;;
34030;SDS011;20319;28.466;-16.274;2023-08-21T13:49:08;20.65;;;5.15;;
34030;SDS011;20319;28.466;-16.274;2023-08-21T13:51:34;22.05;;;5.70;;
34030;SDS011;20319;28.466;-16.274;2023-08-21T13:54:00;19.48;;;4.68;;
34030;SDS011;20319;28.466;-16.274;2023-08-21T13:56:26;16.65;;;4.60;;
34030;SDS011;20319;28.466;-16.274;2023-08-21T13:58:52;15.35;;;4.28;;
34030;SDS011;20319;28.466;-16.274;2023-08-21T14:01:18;18.83;;;5.25;;
34030;SDS011;20319;28.466;-16.274;2023-08-21T14:03:43;12.05;;;4.50;;
34030;SDS011;20319;28.466;-16.274;2023-08-21T14:06:09;14.85;;;4.28;;
34030;SDS011;20319;28.466;-16.274;2023-08-21T14:08:36;18.23;;;4.85;;
34030;SDS011;20319;28.466;-16.274;2023-08-21T14:11:02;15.85;;;4.65;;
34030;SDS011;20319;28.466;-16.274;2023-08-21T14:13:28;21.48;;;5.45;;
34030;SDS011;20319;28.466;-16.274;2023-08-21T14:15:54;22.55;;;4.90;;
34030;SDS011;20319;28.466;-16.274;2023-08-21T14:18:19;13.23;;;4.72;;